Time;durP1;ratioP1;P1;durP2;ratioP2;P2;SDS_P1;SDS_P2;PMS_P1;PMS_P2;Temp;Humidity;BMP_temperature;BMP_pressure;BME280_temperature;BME280_humidity;BME280_pressure;Samples;Min_cycle;Max_cycle;Signal;HPM_P1;HPM_P2
2022/12/28 00:01:37;;;;;;;12.10;5.00;;;6.10;99.90;;;;;;5052620;28;20471;-67
2022/12/28 00:04:05;;;;;;;11.27;6.05;;;6.10;99.90;;;;;;5053209;28;20111;-67
2022/12/28 00:06:33;;;;;;;12.60;5.40;;;6.10;99.90;;;;;;5053766;28;20047;-65
2022/12/28 00:08:59;;;;;;;9.02;5.00;;;6.10;99.90;;;;;;5055014;28;20406;-66
2022/12/28 00:11:26;;;;;;;9.07;5.60;;;6.10;99.90;;;;;;5067663;28;20046;-65
2022/12/28 00:13:52;;;;;;;15.32;6.03;;;6.10;99.90;;;;;;5054001;28;20059;-66
2022/12/28 00:16:34;;;;;;;8.88;5.60;;;6.10;99.90;;;;;;5060818;28;20045;-67
2022/12/28 00:19:03;;;;;;;10.00;5.40;;;6.10;99.90;;;;;;5064676;28;20538;-67
2022/12/28 00:21:29;;;;;;;8.95;5.10;;;6.10;99.90;;;;;;5070083;28;20094;-66
2022/12/28 00:23:56;;;;;;;11.57;5.53;;;6.10;99.90;;;;;;5068734;28;21106;-67
2022/12/28 00:26:22;;;;;;;14.27;5.85;;;6.00;99.90;;;;;;5052666;28;20040;-67
2022/12/28 00:28:48;;;;;;;9.98;5.40;;;6.10;99.90;;;;;;5070683;28;20036;-67
2022/12/28 00:31:14;;;;;;;10.65;5.40;;;6.10;99.90;;;;;;5053004;28;20037;-66
2022/12/28 00:33:40;;;;;;;13.50;5.80;;;6.10;99.90;;;;;;5049765;28;20041;-67
2022/12/28 00:36:08;;;;;;;18.50;6.57;;;6.00;99.90;;;;;;5066068;28;20100;-66
2022/12/28 00:38:37;;;;;;;14.90;5.80;;;6.00;99.90;;;;;;5071051;28;20518;-68
2022/12/28 00:41:03;;;;;;;13.25;6.15;;;6.00;99.90;;;;;;5050387;28;20051;-67
2022/12/28 00:43:30;;;;;;;11.63;5.97;;;6.10;99.90;;;;;;5057775;28;20395;-67
2022/12/28 00:45:55;;;;;;;11.55;5.95;;;6.00;99.90;;;;;;5071331;28;20041;-68
2022/12/28 00:48:21;;;;;;;9.38;5.20;;;6.00;99.90;;;;;;5069352;28;20044;-66
2022/12/28 00:50:46;;;;;;;13.32;6.55;;;6.10;99.90;;;;;;5066288;28;20469;-68
2022/12/28 00:53:13;;;;;;;11.75;6.03;;;6.10;99.90;;;;;;5065986;28;20041;-67
2022/12/28 00:55:39;;;;;;;11.43;5.80;;;6.10;99.90;;;;;;5071063;28;20036;-67
2022/12/28 00:58:06;;;;;;;13.18;6.43;;;6.10;99.90;;;;;;5066372;28;20040;-67
2022/12/28 01:00:32;;;;;;;12.95;6.03;;;6.10;99.90;;;;;;5069883;28;20528;-67
2022/12/28 01:02:58;;;;;;;13.68;5.88;;;6.10;99.90;;;;;;5069467;28;20662;-67
2022/12/28 01:05:24;;;;;;;11.10;6.07;;;6.10;99.90;;;;;;5068111;28;20036;-67
2022/12/28 01:07:49;;;;;;;10.18;5.43;;;6.10;99.90;;;;;;5069780;28;20036;-67
2022/12/28 01:10:15;;;;;;;14.43;6.38;;;6.10;99.90;;;;;;5070919;28;20478;-67
2022/12/28 01:12:41;;;;;;;11.98;6.00;;;6.10;99.90;;;;;;5070556;28;20040;-67
2022/12/28 01:15:08;;;;;;;12.23;5.55;;;6.20;99.90;;;;;;5066195;28;20041;-67
2022/12/28 01:17:34;;;;;;;15.57;6.65;;;6.10;99.90;;;;;;5068300;28;20071;-67
2022/12/28 01:20:00;;;;;;;11.55;6.25;;;6.10;99.90;;;;;;5070961;28;20127;-67
2022/12/28 01:22:26;;;;;;;15.68;6.43;;;6.20;99.90;;;;;;5066951;28;20048;-67
2022/12/28 01:24:52;;;;;;;11.57;5.75;;;6.20;99.90;;;;;;5063012;28;20074;-67
2022/12/28 01:27:18;;;;;;;10.75;6.00;;;6.20;99.90;;;;;;5070534;28;20028;-66
2022/12/28 01:29:43;;;;;;;14.27;7.22;;;6.20;99.90;;;;;;5070619;28;20068;-67
2022/12/28 01:32:09;;;;;;;15.35;6.53;;;6.20;99.90;;;;;;5061855;28;20075;-66
2022/12/28 01:34:35;;;;;;;12.57;6.25;;;6.20;99.90;;;;;;5072344;28;20151;-67
2022/12/28 01:37:01;;;;;;;10.63;5.53;;;6.20;99.90;;;;;;5073129;28;20051;-67
2022/12/28 01:39:27;;;;;;;16.17;7.10;;;6.20;99.90;;;;;;5062320;28;20047;-67
2022/12/28 01:41:52;;;;;;;16.13;6.78;;;6.20;99.90;;;;;;5056765;28;20103;-67
2022/12/28 01:44:24;;;;;;;14.35;6.00;;;6.20;99.90;;;;;;5050651;22;20042;-63
2022/12/28 01:46:54;;;;;;;10.07;5.75;;;6.20;99.90;;;;;;5014522;28;20040;-64
2022/12/28 01:49:26;;;;;;;11.05;5.38;;;6.30;99.90;;;;;;5010444;28;20127;-64
2022/12/28 01:52:07;;;;;;;13.57;6.15;;;6.30;99.90;;;;;;5017644;28;20038;-63
2022/12/28 01:54:43;;;;;;;12.20;6.20;;;6.30;99.90;;;;;;5033713;28;20037;-63
2022/12/28 01:57:10;;;;;;;8.82;5.88;;;6.40;99.90;;;;;;5011576;28;20423;-63
2022/12/28 01:59:40;;;;;;;10.50;5.82;;;6.40;99.90;;;;;;5012270;28;20419;-63
2022/12/28 02:02:06;;;;;;;12.23;6.10;;;6.40;99.90;;;;;;5014133;28;20038;-65
2022/12/28 02:04:32;;;;;;;8.85;5.30;;;6.40;99.90;;;;;;5010355;28;20036;-65
2022/12/28 02:06:57;;;;;;;9.60;5.88;;;6.50;99.90;;;;;;5009617;28;20377;-64
2022/12/28 02:09:37;;;;;;;11.52;6.30;;;6.50;99.90;;;;;;5014116;28;20506;-63
2022/12/28 02:12:04;;;;;;;11.95;6.60;;;6.50;99.90;;;;;;5014191;28;20049;-63
2022/12/28 02:14:30;;;;;;;10.65;5.95;;;6.60;99.90;;;;;;5004550;28;20038;-63
2022/12/28 02:16:55;;;;;;;11.30;6.20;;;6.60;99.90;;;;;;5013760;28;20044;-64
2022/12/28 02:19:36;;;;;;;9.60;5.65;;;6.60;99.90;;;;;;5013803;28;20049;-63
2022/12/28 02:22:41;;;;;;;10.38;6.18;;;6.70;99.90;;;;;;5002057;28;20049;-63
2022/12/28 02:25:26;;;;;;;11.23;5.80;;;6.60;99.90;;;;;;5008042;28;20045;-66
2022/12/28 02:28:29;;;;;;;10.52;6.03;;;6.60;99.90;;;;;;5012474;28;20389;-63
2022/12/28 02:31:07;;;;;;;9.18;6.07;;;6.60;99.90;;;;;;4999186;28;20038;-65
2022/12/28 02:33:43;;;;;;;10.68;6.75;;;6.50;99.90;;;;;;5010127;28;20407;-63
2022/12/28 02:36:18;;;;;;;14.18;6.18;;;6.50;99.90;;;;;;5013477;28;20034;-63
2022/12/28 02:38:53;;;;;;;13.23;6.57;;;6.50;99.90;;;;;;4996095;28;20499;-64
2022/12/28 02:41:23;;;;;;;9.02;6.53;;;6.50;99.90;;;;;;5009118;28;20045;-63
2022/12/28 02:43:49;;;;;;;13.65;7.38;;;6.50;99.90;;;;;;5021246;28;20124;-63
2022/12/28 02:52:24;;;;;;;15.52;7.95;;;6.50;99.90;;;;;;5006700;28;20052;-64
2022/12/28 02:58:06;;;;;;;12.55;8.50;;;6.50;99.90;;;;;;5005654;28;20053;-63
2022/12/28 03:01:02;;;;;;;17.23;8.18;;;6.50;99.90;;;;;;5012791;28;20493;-64
2022/12/28 03:03:53;;;;;;;15.95;7.40;;;6.60;99.90;;;;;;5000632;28;20053;-65
2022/12/28 03:09:28;;;;;;;13.20;6.97;;;6.60;99.90;;;;;;4993330;28;20049;-64
2022/12/28 03:12:25;;;;;;;17.45;9.10;;;6.60;99.90;;;;;;4995918;28;20503;-63
2022/12/28 03:15:11;;;;;;;16.25;9.07;;;6.60;99.90;;;;;;5004756;28;20029;-63
2022/12/28 03:31:34;;;;;;;12.52;7.88;;;6.90;99.90;;;;;;5006014;28;20053;-63
2022/12/28 03:34:07;;;;;;;13.50;8.93;;;6.90;99.90;;;;;;5012364;28;20503;-66
2022/12/28 03:36:42;;;;;;;14.13;9.60;;;6.90;99.90;;;;;;5006442;28;20342;-64
2022/12/28 03:39:20;;;;;;;11.93;7.95;;;7.00;99.90;;;;;;5010712;28;20070;-63
2022/12/28 03:44:39;;;;;;;16.67;8.25;;;7.00;99.90;;;;;;5022876;28;20052;-63
2022/12/28 03:47:11;;;;;;;14.20;9.48;;;7.00;99.90;;;;;;5025409;28;20112;-64
2022/12/28 03:49:38;;;;;;;13.02;7.72;;;7.00;99.90;;;;;;5031551;28;20041;-64
2022/12/28 03:52:05;;;;;;;14.80;8.50;;;7.10;99.90;;;;;;5032051;28;20167;-64
2022/12/28 03:54:31;;;;;;;14.60;8.57;;;7.10;99.90;;;;;;5019230;28;20691;-63
2022/12/28 03:56:56;;;;;;;16.23;9.63;;;7.10;99.90;;;;;;5031707;28;20026;-63
2022/12/28 03:59:22;;;;;;;12.07;8.43;;;7.10;99.90;;;;;;5031740;28;20514;-64
2022/12/28 04:01:47;;;;;;;11.18;6.88;;;7.10;99.90;;;;;;5019947;28;20506;-64
2022/12/28 04:04:13;;;;;;;12.60;8.23;;;7.10;99.90;;;;;;5012787;28;20040;-63
2022/12/28 04:06:38;;;;;;;10.20;7.45;;;7.10;99.90;;;;;;5031713;28;20041;-63
2022/12/28 04:09:05;;;;;;;11.68;8.00;;;7.10;99.90;;;;;;5028236;28;20038;-65
2022/12/28 04:11:32;;;;;;;11.02;7.20;;;7.10;99.90;;;;;;5005001;28;20042;-63
2022/12/28 04:13:58;;;;;;;11.10;7.78;;;7.10;99.90;;;;;;5031292;28;20041;-65
2022/12/28 04:16:23;;;;;;;10.98;6.45;;;7.20;99.90;;;;;;5031763;28;20061;-65
2022/12/28 04:18:49;;;;;;;10.55;7.35;;;7.20;99.90;;;;;;5020873;28;20407;-63
2022/12/28 04:21:15;;;;;;;13.80;8.40;;;7.20;99.90;;;;;;5030827;28;20044;-63
2022/12/28 04:23:41;;;;;;;10.85;7.43;;;7.20;99.90;;;;;;5031345;28;20042;-63
2022/12/28 04:26:12;;;;;;;9.88;7.18;;;7.20;99.90;;;;;;5027683;28;20446;-63
2022/12/28 04:28:38;;;;;;;;;;;7.20;99.90;;;;;;5030691;28;20045;-64
2022/12/28 04:31:06;;;;;;;11.25;7.47;;;7.20;99.90;;;;;;5031098;28;19916;-65
2022/12/28 04:33:33;;;;;;;10.85;6.03;;;7.20;99.90;;;;;;5031645;28;20073;-63
2022/12/28 04:36:07;;;;;;;11.60;7.57;;;7.30;99.90;;;;;;5025212;28;20033;-67
2022/12/28 04:38:34;;;;;;;9.10;5.80;;;7.30;99.90;;;;;;5014848;28;20037;-63
2022/12/28 04:41:00;;;;;;;9.85;6.28;;;7.30;99.90;;;;;;5029612;28;20051;-63
2022/12/28 04:43:25;;;;;;;10.75;6.43;;;7.30;99.90;;;;;;5022990;28;20045;-63
2022/12/28 04:45:56;;;;;;;9.45;6.53;;;7.30;99.90;;;;;;5033550;28;20437;-64
2022/12/28 04:48:21;;;;;;;8.05;6.07;;;7.30;99.90;;;;;;5018010;28;20463;-63
2022/12/28 04:50:47;;;;;;;8.55;6.10;;;7.40;99.90;;;;;;5020484;28;20069;-67
2022/12/28 04:53:13;;;;;;;8.20;5.90;;;7.40;99.90;;;;;;5030204;28;20404;-64
2022/12/28 04:55:38;;;;;;;9.13;6.55;;;7.30;99.90;;;;;;5023782;28;20038;-65
2022/12/28 04:58:04;;;;;;;9.18;5.97;;;7.40;99.90;;;;;;5027062;28;20045;-64
2022/12/28 05:00:29;;;;;;;8.35;6.07;;;7.40;99.90;;;;;;5011858;28;20037;-64
2022/12/28 05:02:58;;;;;;;9.40;6.70;;;7.40;99.90;;;;;;5026335;28;20076;-64
2022/12/28 05:05:23;;;;;;;7.80;5.72;;;7.40;99.90;;;;;;5030187;28;20041;-64
2022/12/28 05:07:49;;;;;;;9.02;6.85;;;7.40;99.90;;;;;;5031381;28;20038;-64
2022/12/28 05:10:14;;;;;;;10.02;7.78;;;7.40;99.90;;;;;;5026914;28;20037;-64
2022/12/28 05:12:40;;;;;;;12.80;7.93;;;7.50;99.90;;;;;;5028107;28;20598;-64
2022/12/28 05:15:06;;;;;;;9.43;6.72;;;7.50;99.90;;;;;;5048124;28;20044;-64
2022/12/28 05:17:32;;;;;;;13.27;7.63;;;7.60;99.90;;;;;;5021123;28;20052;-64
2022/12/28 05:19:58;;;;;;;10.60;6.63;;;7.60;99.90;;;;;;5027013;28;20037;-64
2022/12/28 05:22:23;;;;;;;10.57;6.60;;;7.60;99.90;;;;;;5033156;28;20033;-64
2022/12/28 05:24:49;;;;;;;9.25;6.72;;;7.60;99.90;;;;;;5025220;28;20041;-64
2022/12/28 05:27:15;;;;;;;11.70;8.15;;;7.70;99.90;;;;;;5027508;28;20112;-64
2022/12/28 05:29:40;;;;;;;9.18;6.88;;;7.70;99.90;;;;;;5033177;28;20034;-64
2022/12/28 05:32:06;;;;;;;9.10;6.85;;;7.70;99.90;;;;;;5033094;28;20033;-64
2022/12/28 05:34:31;;;;;;;10.57;7.38;;;7.70;99.90;;;;;;5027046;28;20048;-64
2022/12/28 05:36:57;;;;;;;9.23;6.22;;;7.80;99.90;;;;;;5041354;28;20065;-64
2022/12/28 05:39:23;;;;;;;9.95;6.93;;;7.80;99.90;;;;;;5032789;28;20037;-64
2022/12/28 05:41:49;;;;;;;9.90;6.93;;;7.90;99.90;;;;;;5026883;28;20087;-64
2022/12/28 05:44:14;;;;;;;8.88;6.18;;;7.90;99.90;;;;;;4992019;28;1053111;-64
2022/12/28 05:46:40;;;;;;;9.02;6.10;;;7.90;99.90;;;;;;5033967;28;20056;-64
2022/12/28 05:49:08;;;;;;;9.82;6.97;;;8.00;99.90;;;;;;5031007;28;20116;-64
2022/12/28 05:51:33;;;;;;;9.95;8.00;;;8.00;99.90;;;;;;5024680;28;20073;-66
2022/12/28 05:54:03;;;;;;;9.68;6.82;;;8.00;99.90;;;;;;5042074;28;20474;-66
2022/12/28 05:56:30;;;;;;;10.10;6.43;;;8.10;99.90;;;;;;5033992;28;20406;-65
2022/12/28 05:59:01;;;;;;;9.70;6.15;;;8.10;99.90;;;;;;5020636;28;20120;-65
2022/12/28 06:01:29;;;;;;;11.68;7.18;;;8.10;99.90;;;;;;5032122;28;20049;-65
2022/12/28 06:04:01;;;;;;;12.20;7.25;;;8.10;99.90;;;;;;5023923;28;20421;-65
2022/12/28 06:06:27;;;;;;;10.18;7.90;;;8.10;99.90;;;;;;5017817;28;20558;-65
2022/12/28 06:08:53;;;;;;;10.82;7.07;;;8.10;99.90;;;;;;5020734;28;20033;-65
2022/12/28 06:11:21;;;;;;;10.95;7.30;;;8.10;99.90;;;;;;5033684;28;20120;-65
2022/12/28 06:13:47;;;;;;;10.88;7.60;;;8.10;99.90;;;;;;5033810;28;20041;-66
2022/12/28 06:16:21;;;;;;;12.75;7.88;;;8.10;99.90;;;;;;5019336;28;20099;-65
2022/12/28 06:18:48;;;;;;;10.70;8.10;;;8.10;99.90;;;;;;5035545;28;20037;-66
2022/12/28 06:21:16;;;;;;;11.10;8.18;;;8.10;99.90;;;;;;5052632;28;20077;-64
2022/12/28 06:23:42;;;;;;;11.93;8.25;;;8.20;99.90;;;;;;5022247;28;20116;-66
2022/12/28 06:26:11;;;;;;;11.00;7.32;;;8.20;99.90;;;;;;5032470;28;20037;-65
2022/12/28 06:28:38;;;;;;;10.02;7.20;;;8.20;99.90;;;;;;5033478;28;20484;-66
2022/12/28 06:31:13;;;;;;;12.35;9.07;;;8.20;99.90;;;;;;5024708;28;20561;-66
2022/12/28 06:33:40;;;;;;;9.18;7.80;;;8.30;99.90;;;;;;5015668;28;20044;-65
2022/12/28 06:36:17;;;;;;;10.57;7.43;;;8.30;99.90;;;;;;5033033;28;20033;-66
2022/12/28 06:38:43;;;;;;;11.68;7.38;;;8.30;99.90;;;;;;5032948;28;20041;-64
2022/12/28 06:41:11;;;;;;;10.80;8.10;;;8.30;99.90;;;;;;5014829;28;20488;-65
2022/12/28 06:43:38;;;;;;;12.25;8.35;;;8.40;99.90;;;;;;5026689;28;20514;-66
2022/12/28 06:46:05;;;;;;;13.05;8.73;;;8.40;99.90;;;;;;5026224;28;20045;-65
2022/12/28 06:48:32;;;;;;;12.35;7.95;;;8.40;99.90;;;;;;5032735;28;20033;-65
2022/12/28 06:51:00;;;;;;;11.18;7.90;;;8.40;99.90;;;;;;5033118;28;20395;-66
2022/12/28 06:53:28;;;;;;;12.98;8.27;;;8.40;99.90;;;;;;5023361;28;20100;-65
2022/12/28 06:55:55;;;;;;;12.73;8.38;;;8.40;99.90;;;;;;5015011;28;20077;-65
2022/12/28 06:58:22;;;;;;;12.10;9.43;;;8.40;99.90;;;;;;5013930;28;20408;-66
2022/12/28 07:00:48;;;;;;;16.92;10.02;;;8.40;99.90;;;;;;5018636;28;20524;-65
2022/12/28 07:03:13;;;;;;;14.63;9.95;;;8.50;99.90;;;;;;5023700;28;20520;-66
2022/12/28 07:05:39;;;;;;;14.77;10.07;;;8.50;99.90;;;;;;5013180;28;20112;-66
2022/12/28 07:08:05;;;;;;;13.70;8.95;;;8.60;99.90;;;;;;5031212;28;20124;-65
2022/12/28 07:10:32;;;;;;;13.40;9.13;;;8.60;99.90;;;;;;5024342;28;20042;-65
2022/12/28 07:12:58;;;;;;;14.05;9.23;;;8.60;99.90;;;;;;5017291;28;20056;-66
2022/12/28 07:15:24;;;;;;;15.10;10.85;;;8.60;99.90;;;;;;5023339;28;20547;-66
2022/12/28 07:17:49;;;;;;;14.95;9.82;;;8.60;99.90;;;;;;5022678;28;20037;-65
2022/12/28 07:20:15;;;;;;;16.50;10.45;;;8.60;99.90;;;;;;5033055;28;20032;-65
2022/12/28 07:22:40;;;;;;;15.07;9.27;;;8.60;99.90;;;;;;5025482;28;20423;-65
2022/12/28 07:25:07;;;;;;;15.27;9.88;;;8.70;99.90;;;;;;5024311;28;20055;-66
2022/12/28 07:27:34;;;;;;;15.70;10.38;;;8.60;99.90;;;;;;5031964;28;20512;-65
2022/12/28 07:30:00;;;;;;;13.93;9.05;;;8.70;99.90;;;;;;5018973;28;20465;-66
2022/12/28 07:32:26;;;;;;;14.82;9.05;;;8.70;99.90;;;;;;5014812;28;20491;-65
2022/12/28 07:34:51;;;;;;;14.77;10.55;;;8.80;99.90;;;;;;5022615;28;20069;-65
2022/12/28 07:37:17;;;;;;;16.20;10.52;;;8.80;99.90;;;;;;5030451;28;20029;-65
2022/12/28 07:39:42;;;;;;;14.32;8.90;;;8.80;99.90;;;;;;5031750;28;20083;-65
2022/12/28 07:42:10;;;;;;;15.30;10.45;;;8.80;99.90;;;;;;5023757;28;20404;-65
2022/12/28 07:44:36;;;;;;;14.82;10.68;;;8.80;99.90;;;;;;5067785;22;20049;-64
2022/12/28 07:47:02;;;;;;;13.82;9.57;;;8.80;99.90;;;;;;5036590;28;20477;-64
2022/12/28 07:49:27;;;;;;;15.20;9.82;;;8.80;99.90;;;;;;5043436;28;20067;-63
2022/12/28 07:51:53;;;;;;;19.48;11.80;;;8.80;99.90;;;;;;5059029;28;20033;-65
2022/12/28 07:54:19;;;;;;;14.73;9.77;;;8.90;99.90;;;;;;5042000;28;20064;-63
2022/12/28 07:56:44;;;;;;;15.88;10.15;;;8.90;99.90;;;;;;4992819;28;20399;-63
2022/12/28 07:59:12;;;;;;;15.68;9.60;;;8.90;99.90;;;;;;5008185;28;20037;-64
2022/12/28 08:01:38;;;;;;;14.75;10.00;;;8.90;99.90;;;;;;5030588;28;20042;-64
2022/12/28 08:04:06;;;;;;;15.93;10.35;;;9.00;99.90;;;;;;5017474;28;20034;-64
2022/12/28 08:06:34;;;;;;;16.27;11.30;;;9.00;99.90;;;;;;5012730;28;20634;-64
2022/12/28 08:09:00;;;;;;;13.32;9.48;;;9.00;99.90;;;;;;5027483;28;20040;-64
2022/12/28 08:11:29;;;;;;;14.32;10.15;;;9.00;99.90;;;;;;5048343;28;20045;-64
2022/12/28 08:13:56;;;;;;;14.13;9.20;;;8.90;99.90;;;;;;5048803;28;20048;-64
2022/12/28 08:16:25;;;;;;;15.40;10.63;;;9.00;99.90;;;;;;5006755;28;20080;-64
2022/12/28 08:18:51;;;;;;;14.60;10.15;;;8.90;99.90;;;;;;5025843;28;20038;-63
2022/12/28 08:21:27;;;;;;;15.30;10.02;;;8.90;99.90;;;;;;5024219;28;20116;-63
2022/12/28 08:23:53;;;;;;;16.90;9.70;;;8.90;99.90;;;;;;5023618;28;20090;-63
2022/12/28 08:26:27;;;;;;;14.98;9.43;;;8.90;99.90;;;;;;5030988;28;20047;-63
2022/12/28 08:28:55;;;;;;;13.82;9.15;;;8.90;99.90;;;;;;5023242;28;20365;-64
2022/12/28 08:31:24;;;;;;;15.70;11.32;;;8.90;99.90;;;;;;5013761;28;20061;-64
2022/12/28 08:33:50;;;;;;;11.27;8.98;;;8.90;99.90;;;;;;5008480;28;20033;-63
2022/12/28 08:36:16;;;;;;;13.13;9.68;;;8.90;99.90;;;;;;5041872;28;20038;-63
2022/12/28 08:38:43;;;;;;;11.90;8.27;;;8.90;99.90;;;;;;5029780;28;20044;-63
2022/12/28 08:41:15;;;;;;;14.30;8.07;;;8.90;99.90;;;;;;5027349;28;20488;-64
2022/12/28 08:43:42;;;;;;;10.43;7.15;;;9.00;99.90;;;;;;5021141;28;20057;-64
2022/12/28 08:46:17;;;;;;;13.93;9.30;;;9.00;99.90;;;;;;5035608;28;20071;-63
2022/12/28 08:48:44;;;;;;;12.52;8.35;;;8.90;99.90;;;;;;5027288;28;20053;-63
2022/12/28 08:51:13;;;;;;;10.45;7.20;;;8.90;99.90;;;;;;5024132;28;20065;-63
2022/12/28 08:53:40;;;;;;;12.02;8.18;;;9.00;99.90;;;;;;5027814;28;20125;-66
2022/12/28 08:56:09;;;;;;;10.50;7.55;;;9.00;99.90;;;;;;5034619;28;20038;-64
2022/12/28 08:58:35;;;;;;;12.18;8.63;;;9.00;99.90;;;;;;5052966;28;20375;-63
2022/12/28 09:01:15;;;;;;;12.68;8.90;;;9.00;99.90;;;;;;5054488;28;20044;-63
2022/12/28 09:03:43;;;;;;;11.32;8.25;;;9.10;99.90;;;;;;5032254;28;20062;-64
2022/12/28 09:06:11;;;;;;;11.32;7.18;;;9.10;99.90;;;;;;5023117;28;20411;-65
2022/12/28 09:08:38;;;;;;;12.23;8.68;;;9.10;99.90;;;;;;5042389;28;20272;-63
2022/12/28 09:11:06;;;;;;;12.00;8.93;;;9.10;99.90;;;;;;5020322;28;20053;-64
2022/12/28 09:13:33;;;;;;;13.38;8.75;;;9.10;99.90;;;;;;5031684;28;20037;-63
2022/12/28 09:16:09;;;;;;;14.05;8.70;;;9.10;99.90;;;;;;5035062;28;20407;-64
2022/12/28 09:18:36;;;;;;;12.27;7.78;;;9.10;99.90;;;;;;5025295;28;20096;-64
2022/12/28 09:21:15;;;;;;;11.80;8.20;;;9.20;99.90;;;;;;5030724;28;20587;-64
2022/12/28 09:23:42;;;;;;;10.95;7.40;;;9.20;99.90;;;;;;5034459;28;20087;-63
2022/12/28 09:26:16;;;;;;;12.73;8.38;;;9.20;99.90;;;;;;5030914;28;20037;-64
2022/12/28 09:28:52;;;;;;;11.70;8.52;;;9.20;99.90;;;;;;5032425;28;20041;-63
2022/12/28 09:31:19;;;;;;;13.40;8.18;;;9.20;99.90;;;;;;5034022;28;20034;-63
2022/12/28 09:34:00;;;;;;;12.75;9.27;;;9.30;99.90;;;;;;5033868;28;20060;-63
2022/12/28 09:36:29;;;;;;;13.13;7.82;;;9.30;99.90;;;;;;5026754;28;20487;-64
2022/12/28 09:38:56;;;;;;;13.65;9.13;;;9.30;99.90;;;;;;5033489;28;20045;-64
2022/12/28 09:41:38;;;;;;;13.60;9.65;;;9.30;99.90;;;;;;5015477;28;20492;-63
2022/12/28 09:44:15;;;;;;;14.05;9.65;;;9.30;99.90;;;;;;5030333;28;20034;-64
2022/12/28 09:47:11;;;;;;;14.02;10.27;;;9.30;99.90;;;;;;5026852;28;20038;-65
2022/12/28 09:49:45;;;;;;;13.35;8.48;;;9.30;99.90;;;;;;4962442;28;20212;-64
2022/12/28 09:52:13;;;;;;;15.35;9.38;;;9.30;99.90;;;;;;5019422;28;20552;-64
2022/12/28 09:54:40;;;;;;;10.30;6.93;;;9.30;99.90;;;;;;5021177;28;20081;-67
2022/12/28 09:57:14;;;;;;;12.68;8.10;;;9.40;99.90;;;;;;5006347;28;20042;-64
2022/12/28 09:59:40;;;;;;;12.30;8.45;;;9.30;99.90;;;;;;5007932;28;20041;-65
2022/12/28 10:02:26;;;;;;;13.57;8.05;;;9.30;99.90;;;;;;5021312;28;20037;-63
2022/12/28 10:04:52;;;;;;;14.27;9.60;;;9.40;99.90;;;;;;5040816;28;20037;-64
2022/12/28 10:07:18;;;;;;;10.20;7.78;;;9.40;99.90;;;;;;5029927;28;20091;-67
2022/12/28 10:09:45;;;;;;;11.77;7.05;;;9.40;99.90;;;;;;5022585;28;20041;-64
2022/12/28 10:12:20;;;;;;;13.52;7.80;;;9.50;99.90;;;;;;5039194;28;20483;-66
2022/12/28 10:14:47;;;;;;;11.77;7.35;;;9.40;99.90;;;;;;5053749;28;20049;-63
2022/12/28 10:17:15;;;;;;;12.45;8.63;;;9.40;99.90;;;;;;5020583;28;20030;-64
2022/12/28 10:19:45;;;;;;;13.48;7.57;;;9.50;99.90;;;;;;5034457;28;20091;-64
2022/12/28 10:22:14;;;;;;;10.40;7.22;;;9.40;99.90;;;;;;5017899;28;20124;-63
2022/12/28 10:24:41;;;;;;;11.00;7.60;;;9.40;99.90;;;;;;5030963;28;20079;-64
2022/12/28 10:27:11;;;;;;;11.00;7.75;;;9.40;99.90;;;;;;5038885;28;20489;-64
2022/12/28 10:29:37;;;;;;;11.68;8.20;;;9.50;99.90;;;;;;5029821;28;20041;-64
2022/12/28 10:32:05;;;;;;;11.00;7.25;;;9.50;99.90;;;;;;5024979;28;20040;-63
2022/12/28 10:34:34;;;;;;;11.50;7.45;;;9.50;99.90;;;;;;5020286;28;20073;-64
2022/12/28 10:37:15;;;;;;;12.60;7.88;;;9.50;99.90;;;;;;5034807;28;20033;-64
2022/12/28 10:39:51;;;;;;;10.48;6.75;;;9.50;99.90;;;;;;5032657;28;20132;-63
2022/12/28 10:42:41;;;;;;;10.88;6.43;;;9.50;99.90;;;;;;5026546;28;20030;-64
2022/12/28 10:45:20;;;;;;;10.75;7.32;;;9.50;99.90;;;;;;5018370;28;20043;-64
2022/12/28 10:47:49;;;;;;;11.23;7.00;;;9.50;99.90;;;;;;5052682;28;20045;-66
2022/12/28 10:50:38;;;;;;;7.75;5.70;;;9.50;99.90;;;;;;5032875;28;20484;-64
2022/12/28 10:53:04;;;;;;;11.23;7.00;;;9.50;99.90;;;;;;5031877;28;20036;-64
2022/12/28 10:55:32;;;;;;;10.50;6.15;;;9.50;99.90;;;;;;5052995;28;20094;-63
2022/12/28 10:58:16;;;;;;;9.07;5.53;;;9.50;99.90;;;;;;5037349;28;20036;-64
2022/12/28 11:00:41;;;;;;;9.40;6.20;;;9.50;99.90;;;;;;5026088;28;20041;-63
2022/12/28 11:03:18;;;;;;;9.32;6.60;;;9.50;99.90;;;;;;5001849;28;20037;-64
2022/12/28 11:05:43;;;;;;;9.00;6.25;;;9.50;99.90;;;;;;5042885;28;20037;-63
2022/12/28 11:08:13;;;;;;;7.95;5.43;;;9.50;99.90;;;;;;5012290;28;20041;-64
2022/12/28 11:10:39;;;;;;;9.40;5.88;;;9.50;99.90;;;;;;5022563;28;20064;-66
2022/12/28 11:13:16;;;;;;;7.90;6.03;;;9.50;99.90;;;;;;5030303;28;20574;-65
2022/12/28 11:15:43;;;;;;;8.35;5.53;;;9.50;99.90;;;;;;5030855;28;20111;-64
2022/12/28 11:18:17;;;;;;;9.15;5.22;;;9.50;99.90;;;;;;5021097;28;20049;-63
2022/12/28 11:20:49;;;;;;;7.63;6.47;;;9.60;99.90;;;;;;5012519;28;20041;-66
2022/12/28 11:23:22;;;;;;;8.25;5.85;;;9.60;99.90;;;;;;5013563;28;20269;-64
2022/12/28 11:25:48;;;;;;;7.15;5.13;;;9.60;99.90;;;;;;5022119;28;20264;-64
2022/12/28 11:28:17;;;;;;;11.30;5.55;;;9.60;99.90;;;;;;5037146;28;20050;-64
2022/12/28 11:30:44;;;;;;;6.55;4.93;;;9.60;99.90;;;;;;5030144;28;20124;-64
2022/12/28 11:33:25;;;;;;;5.95;4.72;;;9.70;99.90;;;;;;5009829;28;20030;-64
2022/12/28 11:35:53;;;;;;;9.18;5.43;;;9.70;99.90;;;;;;5018600;28;20061;-63
2022/12/28 11:38:39;;;;;;;8.27;5.45;;;9.70;99.90;;;;;;5001300;28;20140;-63
2022/12/28 11:41:05;;;;;;;6.32;4.80;;;9.80;99.90;;;;;;5017374;28;20407;-64
2022/12/28 11:43:38;;;;;;;6.95;4.68;;;9.80;99.90;;;;;;5012491;28;20034;-63
2022/12/28 11:46:20;;;;;;;6.60;4.78;;;9.80;99.90;;;;;;5024748;28;20041;-65
2022/12/28 11:48:48;;;;;;;;;;;9.70;99.90;;;;;;5030518;28;20041;-65
2022/12/28 11:51:28;;;;;;;5.63;3.97;;;9.70;99.90;;;;;;5025565;28;20310;-67
2022/12/28 11:53:59;;;;;;;7.28;5.20;;;9.70;99.90;;;;;;5021825;28;20298;-64
2022/12/28 11:56:45;;;;;;;6.20;4.78;;;9.70;99.90;;;;;;5026135;28;20034;-67
2022/12/28 11:59:29;;;;;;;6.47;4.55;;;9.60;99.90;;;;;;5018155;28;20413;-63
2022/12/28 12:02:00;;;;;;;6.72;4.32;;;9.70;99.90;;;;;;5016714;28;20108;-64
2022/12/28 12:04:28;;;;;;;6.38;4.28;;;9.60;99.90;;;;;;5009373;28;20037;-64
2022/12/28 12:06:55;;;;;;;7.53;4.43;;;9.60;99.90;;;;;;5025030;28;20037;-62
2022/12/28 12:09:22;;;;;;;6.93;4.85;;;9.60;99.90;;;;;;5010847;28;20574;-64
2022/12/28 12:11:53;;;;;;;4.70;3.63;;;9.60;99.90;;;;;;5023585;28;20041;-64
2022/12/28 12:15:02;;;;;;;6.53;4.22;;;9.60;99.90;;;;;;5024511;28;20037;-64
2022/12/28 12:17:44;;;;;;;5.70;4.57;;;9.60;99.90;;;;;;5019248;28;20141;-63
2022/12/28 12:20:29;;;;;;;8.30;4.10;;;9.60;99.90;;;;;;5017614;28;20459;-64
2022/12/28 12:23:01;;;;;;;6.35;4.30;;;9.60;99.90;;;;;;5029283;28;20069;-64
2022/12/28 12:25:43;;;;;;;7.38;4.78;;;9.60;99.90;;;;;;5016337;28;20042;-64
2022/12/28 12:28:33;;;;;;;6.50;3.95;;;9.50;99.90;;;;;;5026955;28;20040;-64
2022/12/28 12:31:01;;;;;;;7.47;4.35;;;9.60;99.90;;;;;;5008133;28;20044;-64
2022/12/28 12:33:32;;;;;;;5.95;3.85;;;9.60;99.90;;;;;;5003678;28;20422;-65
2022/12/28 12:36:25;;;;;;;4.90;3.40;;;9.60;99.90;;;;;;5044015;28;20107;-64
2022/12/28 12:39:04;;;;;;;6.78;4.13;;;9.60;99.90;;;;;;5024151;28;20047;-66
2022/12/28 12:41:45;;;;;;;6.18;3.75;;;9.60;99.90;;;;;;5013061;28;20101;-66
2022/12/28 12:44:38;;;;;;;5.43;3.85;;;9.60;99.90;;;;;;5030201;28;20042;-63
2022/12/28 12:47:36;;;;;;;6.47;3.38;;;9.60;99.90;;;;;;5011016;28;20041;-63
2022/12/28 12:50:20;;;;;;;5.78;3.30;;;9.60;99.90;;;;;;5007030;28;20061;-63
2022/12/28 12:52:58;;;;;;;4.85;3.67;;;9.60;99.90;;;;;;5030441;28;20072;-64
2022/12/28 12:55:47;;;;;;;5.70;3.70;;;9.60;99.90;;;;;;5020561;28;20045;-65
2022/12/28 12:58:53;;;;;;;5.10;3.40;;;9.70;99.90;;;;;;5018455;28;20491;-63
2022/12/28 13:01:24;;;;;;;4.18;3.05;;;9.60;99.90;;;;;;4963049;28;20076;-63
2022/12/28 13:03:54;;;;;;;7.80;3.28;;;9.70;99.90;;;;;;5013378;28;20439;-63
2022/12/28 13:06:23;;;;;;;4.55;3.13;;;9.70;99.90;;;;;;5025597;28;20029;-64
2022/12/28 13:08:56;;;;;;;4.25;2.75;;;9.70;99.90;;;;;;5029266;28;20492;-63
2022/12/28 13:11:22;;;;;;;3.67;2.58;;;9.80;99.90;;;;;;5029443;28;20049;-65
2022/12/28 13:13:51;;;;;;;3.53;2.70;;;9.70;99.90;;;;;;5018434;28;20040;-64
2022/12/28 13:16:20;;;;;;;3.95;2.90;;;9.80;99.90;;;;;;5030205;28;20049;-63
2022/12/28 13:18:56;;;;;;;4.90;2.80;;;9.80;99.90;;;;;;5031079;28;20041;-64
2022/12/28 13:21:24;;;;;;;4.70;2.60;;;9.80;99.90;;;;;;5017906;28;20080;-65
2022/12/28 13:23:51;;;;;;;5.43;2.50;;;9.80;99.90;;;;;;5022427;28;20044;-64
2022/12/28 13:26:20;;;;;;;3.47;2.40;;;9.80;99.90;;;;;;5030319;28;20561;-64
2022/12/28 13:28:59;;;;;;;3.50;2.22;;;9.80;99.90;;;;;;5004615;28;20091;-63
2022/12/28 13:31:39;;;;;;;3.63;2.25;;;9.70;99.90;;;;;;5027244;28;20037;-67
2022/12/28 13:34:22;;;;;;;2.85;2.50;;;9.80;99.90;;;;;;5010714;28;20034;-64
2022/12/28 13:36:55;;;;;;;3.78;2.70;;;9.80;99.90;;;;;;5029910;28;20487;-64